createdAt,value
2022-09-28T02:12:20.692Z,3.17
2022-09-28T02:15:27.168Z,2.90
2022-09-28T02:18:25.916Z,3.83
2022-09-28T02:21:30.222Z,3.33
2022-09-28T02:24:38.237Z,3.28
2022-09-28T02:27:45.179Z,3.42
2022-09-28T02:30:45.496Z,2.88
2022-09-28T02:33:45.082Z,3.50
2022-09-28T02:36:45.479Z,3.15
2022-09-28T02:39:43.559Z,2.85
2022-09-28T02:43:05.115Z,3.40
2022-09-28T02:46:33.185Z,2.58
2022-09-28T02:49:54.516Z,2.85
2022-09-28T02:53:18.017Z,3.10
2022-09-28T02:56:42.027Z,2.70
2022-09-28T03:00:00.353Z,3.20
2022-09-28T03:03:19.668Z,2.30
2022-09-28T03:06:27.897Z,2.88
2022-09-28T03:09:40.501Z,3.10
2022-09-28T03:12:39.733Z,2.72
2022-09-28T03:15:38.772Z,2.95
2022-09-28T03:18:36.918Z,2.35
2022-09-28T03:21:35.577Z,3.03
2022-09-28T03:24:33.698Z,2.30
2022-09-28T03:27:32.342Z,2.30
2022-09-28T03:30:30.457Z,2.60
2022-09-28T03:33:29.299Z,1.88
2022-09-28T03:36:27.526Z,2.75
2022-09-28T03:39:26.219Z,2.30
2022-09-28T03:42:24.295Z,2.30
2022-09-28T03:45:22.920Z,2.33
2022-09-28T03:48:27.626Z,2.72
2022-09-28T03:51:29.432Z,3.67
2022-09-28T03:54:27.577Z,2.75
2022-09-28T03:57:26.194Z,2.60
2022-09-28T04:00:24.773Z,4.00
2022-09-28T04:03:23.447Z,3.00
2022-09-28T04:06:21.588Z,2.65
2022-09-28T04:09:20.283Z,2.90
2022-09-28T04:12:18.398Z,3.28
2022-09-28T04:15:17.138Z,2.63
2022-09-28T04:18:15.205Z,2.97
2022-09-28T04:21:17.231Z,2.17
2022-09-28T04:24:15.392Z,3.13
2022-09-28T04:27:29.680Z,2.25
2022-09-28T04:30:27.881Z,3.97
2022-09-28T04:33:26.557Z,2.55
2022-09-28T04:36:25.537Z,2.35
2022-09-28T04:39:24.118Z,2.22
2022-09-28T04:42:22.234Z,2.45
2022-09-28T04:45:20.924Z,2.33
2022-09-28T04:48:19.353Z,1.77
2022-09-28T04:51:17.987Z,2.63
2022-09-28T04:54:16.318Z,2.35
2022-09-28T04:57:15.021Z,2.30
2022-09-28T05:00:13.907Z,2.28
2022-09-28T05:03:12.543Z,1.75
2022-09-28T05:06:14.543Z,2.13
2022-09-28T05:09:13.171Z,2.25
2022-09-28T05:12:11.294Z,2.38
2022-09-28T05:15:10.353Z,2.50
2022-09-28T05:18:09.321Z,2.38
2022-09-28T05:21:13.553Z,3.58
2022-09-28T05:24:12.407Z,4.90
2022-09-28T05:27:11.093Z,4.93
2022-09-28T05:30:11.290Z,4.95
2022-09-28T05:33:09.981Z,6.22
2022-09-28T05:36:12.015Z,7.82
2022-09-28T05:39:10.853Z,7.72
2022-09-28T05:42:08.996Z,10.10
2022-09-28T05:45:08.164Z,10.48
2022-09-28T05:48:06.499Z,9.55
2022-09-28T05:51:05.485Z,9.00
2022-09-28T05:54:06.107Z,9.73
2022-09-28T05:57:07.492Z,9.60
2022-09-28T06:00:09.428Z,10.57
2022-09-28T06:03:13.415Z,9.73
2022-09-28T06:06:11.503Z,9.32
2022-09-28T06:09:10.134Z,10.52
2022-09-28T06:12:08.398Z,9.07
2022-09-28T06:15:07.633Z,5.70
2022-09-28T06:18:14.631Z,9.65
2022-09-28T06:21:14.787Z,8.05
2022-09-28T06:24:12.996Z,8.40
2022-09-28T06:27:11.711Z,12.10
2022-09-28T06:30:10.538Z,10.77
2022-09-28T06:33:13.260Z,10.60
2022-09-28T06:36:11.401Z,10.40
2022-09-28T06:39:10.160Z,10.63
2022-09-28T06:42:08.436Z,11.30
2022-09-28T06:45:08.160Z,10.55
2022-09-28T06:48:07.219Z,7.43
2022-09-28T06:51:06.065Z,6.70
2022-09-28T06:54:04.451Z,5.63
2022-09-28T06:57:03.054Z,5.78
2022-09-28T07:00:01.567Z,5.90
2022-09-28T07:03:00.812Z,5.45
2022-09-28T07:05:59.168Z,4.93
2022-09-28T07:09:19.190Z,5.38
2022-09-28T07:12:18.390Z,3.78
2022-09-28T07:15:17.077Z,3.55
2022-09-28T07:18:15.445Z,2.10
2022-09-28T07:21:26.617Z,3.25
2022-09-28T07:24:28.923Z,2.72
2022-09-28T07:27:29.121Z,2.10
2022-09-28T07:30:28.904Z,2.72
2022-09-28T07:33:30.732Z,2.38
2022-09-28T07:36:30.306Z,2.50
2022-09-28T07:39:28.890Z,2.58
2022-09-28T07:42:30.295Z,1.67
2022-09-28T07:45:30.889Z,1.77
2022-09-28T07:48:29.418Z,2.55
2022-09-28T07:51:28.338Z,1.92
2022-09-28T07:54:26.424Z,1.73
2022-09-28T07:57:25.634Z,1.40
2022-09-28T08:00:23.796Z,1.65
2022-09-28T08:03:23.095Z,2.10
2022-09-28T08:06:21.194Z,1.50
2022-09-28T08:09:20.075Z,1.50
2022-09-28T08:12:20.089Z,1.17
2022-09-28T08:15:18.722Z,1.90
2022-09-28T08:18:16.848Z,1.85
2022-09-28T08:21:31.093Z,1.70
2022-09-28T08:24:31.395Z,1.50
2022-09-28T08:27:30.009Z,1.63
2022-09-28T08:30:28.272Z,1.55
2022-09-28T08:33:27.319Z,1.83
2022-09-28T08:36:25.567Z,1.20
2022-09-28T08:39:24.355Z,1.50
2022-09-28T08:42:33.379Z,1.98
2022-09-28T08:45:36.369Z,1.70
2022-09-28T08:49:20.500Z,1.73
2022-09-28T08:52:23.867Z,1.65
2022-09-28T08:55:31.671Z,1.83
2022-09-28T08:58:35.856Z,2.25
2022-09-28T09:01:42.379Z,1.33
2022-09-28T09:04:41.490Z,1.60
2022-09-28T09:08:14.404Z,1.80
2022-09-28T09:11:29.979Z,1.50
2022-09-28T09:14:59.195Z,1.23
2022-09-28T09:18:25.883Z,1.60
2022-09-28T09:21:42.167Z,1.60
2022-09-28T09:24:51.664Z,1.38
2022-09-28T09:28:12.148Z,1.45
2022-09-28T09:31:43.519Z,0.90
2022-09-28T09:35:06.003Z,1.27
2022-09-28T09:38:39.824Z,2.20
2022-09-28T09:41:49.937Z,1.75
2022-09-28T09:45:19.173Z,2.13
2022-09-28T09:48:25.576Z,2.17
2022-09-28T09:51:47.866Z,2.20
2022-09-28T09:54:56.949Z,2.17
2022-09-28T09:58:05.168Z,1.70
2022-09-28T10:01:09.745Z,1.40
2022-09-28T10:04:34.540Z,1.40
2022-09-28T10:07:43.541Z,1.27
2022-09-28T10:10:53.626Z,1.27
2022-09-28T10:13:52.426Z,1.63
2022-09-28T10:16:54.262Z,1.15
2022-09-28T10:19:52.351Z,1.63
2022-09-28T10:22:52.482Z,1.13
2022-09-28T10:25:54.832Z,2.00
2022-09-28T10:29:00.683Z,1.23
2022-09-28T10:31:58.765Z,1.85
2022-09-28T10:35:23.148Z,1.23
2022-09-28T10:38:22.820Z,1.30
2022-09-28T10:41:23.250Z,1.52
2022-09-28T10:44:22.729Z,1.40
2022-09-28T10:47:25.211Z,1.45
2022-09-28T10:50:28.501Z,1.13
2022-09-28T10:53:27.283Z,1.60
2022-09-28T10:56:29.516Z,1.48
2022-09-28T10:59:41.953Z,1.42
2022-09-28T11:02:41.938Z,1.42
2022-09-28T11:05:40.817Z,1.77
2022-09-28T11:08:44.710Z,1.30
2022-09-28T11:11:44.438Z,1.55
2022-09-28T11:14:44.902Z,1.45
2022-09-28T11:17:44.854Z,1.30
2022-09-28T11:20:45.403Z,1.70
2022-09-28T11:24:06.997Z,2.47
2022-09-28T11:27:05.171Z,1.40
2022-09-28T11:30:04.094Z,1.90
2022-09-28T11:33:07.964Z,1.90
2022-09-28T11:36:22.150Z,1.75
2022-09-28T11:39:40.432Z,1.60
2022-09-28T11:46:14.244Z,1.90
2022-09-28T11:49:30.196Z,1.10
2022-09-28T11:52:46.665Z,1.25
2022-09-28T11:56:01.772Z,2.05
2022-09-28T11:59:20.172Z,2.75
2022-09-28T12:02:40.186Z,2.25
2022-09-28T12:05:49.861Z,2.75
2022-09-28T12:08:55.911Z,2.30
2022-09-28T12:12:02.201Z,2.25
2022-09-28T12:15:13.371Z,1.60
2022-09-28T12:18:25.296Z,1.52
2022-09-28T12:21:38.249Z,1.20
2022-09-28T12:24:48.012Z,1.80
2022-09-28T12:27:54.305Z,1.67
2022-09-28T12:30:53.098Z,1.98
2022-09-28T12:33:52.833Z,1.13
2022-09-28T12:37:09.514Z,1.77
2022-09-28T12:40:31.717Z,2.00
2022-09-28T12:43:55.040Z,1.33
2022-09-28T12:47:22.946Z,1.63
2022-09-28T12:54:13.531Z,2.33
2022-09-28T12:57:39.912Z,2.53
2022-09-28T13:00:55.869Z,3.10
2022-09-28T13:04:35.493Z,2.90
2022-09-28T13:07:58.210Z,3.10
2022-09-28T13:11:20.994Z,2.72
2022-09-28T13:14:50.728Z,3.10
2022-09-28T13:18:10.179Z,3.17
2022-09-28T13:21:29.437Z,3.53
2022-09-28T13:24:33.969Z,3.03
2022-09-28T13:27:37.679Z,3.30
2022-09-28T13:30:39.597Z,3.53
2022-09-28T13:33:42.045Z,3.70
2022-09-28T13:36:44.500Z,3.55
2022-09-28T13:39:53.338Z,3.53
2022-09-28T13:43:05.917Z,3.05
2022-09-28T13:46:19.494Z,3.42
2022-09-28T13:49:49.044Z,4.82
2022-09-28T13:53:08.656Z,5.00
2022-09-28T13:56:27.841Z,3.47
2022-09-28T13:59:30.238Z,2.95
2022-09-28T14:02:56.372Z,3.67
2022-09-28T14:06:25.611Z,3.07
2022-09-28T14:09:27.725Z,1.92
2022-09-28T14:12:48.258Z,1.98
2022-09-28T14:15:46.548Z,2.13
2022-09-28T14:18:56.672Z,2.10
2022-09-28T14:22:16.815Z,1.73
2022-09-28T14:25:26.519Z,1.58
2022-09-28T14:28:57.234Z,1.38
2022-09-28T14:31:59.609Z,1.48
2022-09-28T14:35:01.313Z,1.17
2022-09-28T14:38:25.951Z,1.08
2022-09-28T14:41:34.181Z,1.50
2022-09-28T14:45:08.115Z,1.05
2022-09-28T14:48:19.513Z,0.93
2022-09-28T14:51:53.436Z,1.40
2022-09-28T14:54:54.761Z,1.20
2022-09-28T14:57:57.442Z,1.30
2022-09-28T15:01:01.415Z,1.05
2022-09-28T15:04:05.077Z,1.23
2022-09-28T15:07:04.092Z,1.63
2022-09-28T15:10:04.065Z,1.27
2022-09-28T15:13:17.073Z,0.98
2022-09-28T15:16:18.188Z,1.10
2022-09-28T15:19:32.486Z,1.15
2022-09-28T15:22:31.235Z,1.30
2022-09-28T15:25:32.220Z,1.15
2022-09-28T15:28:31.247Z,0.75
2022-09-28T15:31:35.020Z,1.02
2022-09-28T15:34:52.538Z,0.85
2022-09-28T15:37:52.646Z,1.02
2022-09-28T15:40:51.680Z,0.95
2022-09-28T15:44:07.683Z,1.17
2022-09-28T15:47:11.542Z,1.10
2022-09-28T15:50:24.454Z,1.15
2022-09-28T15:53:23.176Z,1.42
2022-09-28T15:56:21.455Z,1.63
2022-09-28T15:59:32.603Z,1.15
2022-09-28T16:02:33.601Z,1.20
2022-09-28T16:05:38.453Z,1.10
2022-09-28T16:08:43.119Z,0.90
2022-09-28T16:11:42.117Z,1.15
2022-09-28T16:14:40.217Z,0.93
2022-09-28T16:17:39.114Z,1.60
2022-09-28T16:20:41.083Z,1.23
2022-09-28T16:23:41.858Z,1.05
2022-09-28T16:26:40.175Z,1.20
2022-09-28T16:29:41.339Z,1.35
2022-09-28T16:32:56.821Z,1.80
2022-09-28T16:35:55.478Z,1.25
2022-09-28T16:38:55.275Z,1.48
2022-09-28T16:41:59.829Z,1.35
2022-09-28T16:44:58.106Z,1.42
2022-09-28T16:47:58.010Z,1.60
2022-09-28T16:50:57.265Z,1.55
2022-09-28T16:54:16.416Z,1.08
2022-09-28T16:57:18.032Z,1.20
2022-09-28T17:00:21.550Z,1.20
2022-09-28T17:03:23.866Z,1.50
2022-09-28T17:06:27.268Z,1.27
2022-09-28T17:09:25.689Z,1.10
2022-09-28T17:12:31.172Z,1.38
2022-09-28T17:15:30.292Z,1.30
2022-09-28T17:18:32.165Z,1.00
2022-09-28T17:21:30.308Z,1.10
2022-09-28T17:24:29.424Z,1.15
2022-09-28T17:27:28.100Z,1.40
2022-09-28T17:30:26.867Z,1.48
2022-09-28T17:33:25.587Z,1.77
2022-09-28T17:36:27.726Z,1.80
2022-09-28T17:39:25.862Z,1.20
2022-09-28T17:42:24.435Z,1.40
2022-09-28T17:45:24.130Z,1.65
2022-09-28T17:48:24.718Z,1.88
2022-09-28T17:51:24.163Z,1.35
2022-09-28T17:54:23.136Z,1.38
2022-09-28T17:57:21.761Z,1.38
2022-09-28T18:00:20.470Z,1.40
2022-09-28T18:03:21.880Z,1.20
2022-09-28T18:06:22.713Z,1.75
2022-09-28T18:09:25.476Z,1.45
2022-09-28T18:12:25.517Z,1.35
2022-09-28T18:15:23.872Z,1.40
2022-09-28T18:18:27.776Z,1.20
2022-09-28T18:21:26.091Z,1.23
2022-09-28T18:24:24.871Z,1.77
2022-09-28T18:27:22.911Z,1.60
2022-09-28T18:30:21.528Z,1.23
2022-09-28T18:33:22.375Z,1.25
2022-09-28T18:36:21.247Z,1.17
2022-09-28T18:39:19.562Z,1.40
2022-09-28T18:42:18.440Z,1.13
2022-09-28T18:45:17.668Z,1.38
2022-09-28T18:48:16.668Z,0.88
2022-09-28T18:51:15.072Z,1.05
2022-09-28T18:54:13.923Z,1.10
2022-09-28T18:57:12.132Z,1.02
2022-09-28T19:00:12.328Z,1.23
2022-09-28T19:03:11.715Z,1.45
2022-09-28T19:06:13.595Z,1.00
2022-09-28T19:09:12.098Z,0.98
2022-09-28T19:12:12.864Z,0.90
2022-09-28T19:15:11.176Z,0.98
2022-09-28T19:18:09.934Z,1.30
2022-09-28T19:21:10.219Z,1.00
2022-09-28T19:24:11.473Z,1.00
2022-09-28T19:27:09.603Z,0.90
2022-09-28T19:30:09.071Z,1.00
2022-09-28T19:33:07.313Z,0.77
2022-09-28T19:36:08.513Z,1.13
2022-09-28T19:39:07.640Z,1.13
2022-09-28T19:42:09.049Z,1.30
2022-09-28T19:45:10.631Z,0.82
2022-09-28T19:48:09.173Z,0.90
2022-09-28T19:51:09.088Z,1.17
2022-09-28T19:54:10.442Z,1.00
2022-09-28T19:57:09.119Z,1.05
2022-09-28T20:00:08.718Z,0.75
2022-09-28T20:03:08.670Z,1.35
2022-09-28T20:06:07.599Z,0.98
2022-09-28T20:09:07.262Z,1.10
2022-09-28T20:12:05.993Z,1.30
2022-09-28T20:15:05.518Z,0.95
2022-09-28T20:18:04.229Z,1.00
2022-09-28T20:21:06.053Z,1.08
2022-09-28T20:24:05.628Z,1.30
2022-09-28T20:27:03.752Z,1.88
2022-09-28T20:30:02.881Z,1.10
2022-09-28T20:33:04.664Z,1.13
2022-09-28T20:36:08.291Z,1.40
2022-09-28T20:39:06.495Z,1.25
2022-09-28T20:42:05.319Z,1.50
2022-09-28T20:45:05.870Z,1.65
2022-09-28T20:48:06.862Z,1.60
2022-09-28T20:51:10.683Z,1.35
2022-09-28T20:54:09.407Z,1.63
2022-09-28T20:57:17.774Z,1.67
2022-09-28T21:00:16.864Z,1.40
2022-09-28T21:03:15.109Z,1.70
2022-09-28T21:06:14.755Z,1.65
2022-09-28T21:09:13.084Z,1.75
2022-09-28T21:12:12.042Z,1.80
2022-09-28T21:15:10.761Z,1.80
2022-09-28T21:18:09.454Z,1.90
2022-09-28T21:21:09.417Z,1.67
2022-09-28T21:24:08.409Z,2.00
2022-09-28T21:27:06.530Z,2.80
2022-09-28T21:30:05.825Z,1.98
2022-09-28T21:33:03.938Z,2.13
2022-09-28T21:36:04.572Z,1.90
2022-09-28T21:39:05.960Z,2.35
2022-09-28T21:42:07.278Z,1.83
2022-09-28T21:45:05.939Z,2.30
2022-09-28T21:48:04.673Z,1.85
2022-09-28T21:51:05.559Z,2.33
2022-09-28T21:54:04.515Z,2.53
2022-09-28T21:57:02.612Z,2.45
2022-09-28T22:00:01.311Z,2.50
2022-09-28T22:02:59.603Z,1.85
2022-09-28T22:05:58.626Z,1.83
2022-09-28T22:08:59.543Z,2.60
2022-09-28T22:11:58.134Z,2.65
2022-09-28T22:14:56.515Z,1.92
2022-09-28T22:17:55.207Z,1.92
2022-09-28T22:21:02.333Z,1.83
2022-09-28T22:24:03.101Z,2.42
2022-09-28T22:27:01.228Z,2.40
2022-09-28T22:29:59.878Z,2.03
2022-09-28T22:32:58.060Z,1.63
2022-09-28T22:35:56.729Z,2.33
2022-09-28T22:38:56.026Z,1.65
2022-09-28T22:41:54.818Z,2.10
2022-09-28T22:44:52.913Z,2.00
2022-09-28T22:47:51.495Z,1.95
2022-09-28T22:50:52.071Z,1.73
2022-09-28T22:53:50.802Z,2.22
2022-09-28T22:56:49.034Z,1.80
2022-09-28T22:59:47.648Z,2.35
2022-09-28T23:02:45.837Z,1.75
2022-09-28T23:05:59.902Z,2.78
2022-09-28T23:08:58.268Z,1.90
2022-09-28T23:11:56.902Z,2.28
2022-09-28T23:14:54.946Z,2.05
2022-09-28T23:17:54.154Z,1.77
2022-09-28T23:20:54.873Z,1.48
2022-09-28T23:23:56.795Z,1.98
2022-09-28T23:26:55.044Z,1.55
2022-09-28T23:29:54.877Z,1.83
2022-09-28T23:32:53.934Z,2.00
2022-09-28T23:35:52.991Z,1.60
2022-09-28T23:38:51.141Z,1.83
2022-09-28T23:41:49.860Z,1.95
2022-09-28T23:44:47.909Z,1.88
2022-09-28T23:47:46.499Z,1.55
2022-09-28T23:50:45.596Z,1.50
2022-09-28T23:53:44.357Z,1.98
2022-09-28T23:56:42.463Z,1.58
2022-09-28T23:59:41.046Z,1.73
